Fort Lewis, WA

1:15 AM PDT on August 21, 2014 (GMT -0700)
Gray Army Air Field | Change Station
CLOSE
Current Station
Airport
Location: Fort Lewis,
Elevation: 302 ft
Nearby Weather Stations

Elev 302 ft 47.08 °N, 122.58 °W | Updated 17 minutes ago

Clear
Clear
55 °F
Feels Like 55 °F
N
5
Wind Variable Wind from SE

Today
High -- | Low -- °F
--% Chance of Precip.
Yesterday
High -- | Low -- °F
Precip. -- in
6:15 AM 8:10 PM
Waning Crescent, 16% visible
Pressure 30.03 in
Visibility 10.0 miles
Clouds Clear
Dew Point 50 °F
Humidity 82%
Rainfall 0.00 in
Snow Depth Not available.
UV 0 out of 12
Pollen 3.10 out of 12
PM2.5 Good
Flu Activity Not available.
METAR KGRF 210758Z AUTO 14004KT 10SM CLR 13/10 A3002 RMK AO2 SLP169 T01280098 402250122 PWINO $

More Conditions Fewer Conditions

Pressure 30.03 in
Visibility 10.0 miles
Clouds Clear
Dew Point 50 °F
Humidity 82%
Rainfall 0.00 in
Snow Depth Not available.
UV 0 out of 12
Pollen 3.10 out of 12
PM2.5 Good
Flu Activity Not available.
METAR KGRF 210758Z AUTO 14004KT 10SM CLR 13/10 A3002 RMK AO2 SLP169 T01280098 402250122 PWINO $

More Conditions Fewer Conditions

10-Day Weather Forecast

Almanac

Astronomy

Aug. 21, 2014 Rise Set
Actual Time 6:15 AM PDT 8:10 PM PDT
Civil Twilight 5:42 AM PDT 8:43 PM PDT
Nautical Twilight 5:02 AM PDT 9:23 PM PDT
Astronomical Twilight 4:17 AM PDT 10:07 PM PDT
Moon 2:43 AM PDT 5:48 PM PDT
Length of Visible Light 15h 00m
Length of Day
13h 55m
Tomorrow will be 3m 7s shorter.
Waning Crescent, 16% of the Moon is Illuminated
Today
Waning Crescent
Aug 25
New
Sep 2
First Quarter
Sep 8
Full
Sep 15
Last Quarter

Today's Extremes

State Highs State Lows

Community

WunderPhotos

Upload Photos

1,745,867 photos uploaded!

Nearby

Air Quality

  Air Quality AQ Index Pollutant
Yesterday Good
PM2.5
Current Good
PM2.5
Wednesday Good
OZONE
Wednesday Good
PM2.5
Thursday Good
OZONE
Thursday Good
PM2.5
Friday Good
OZONE
Friday Good
PM2.5
Saturday Good
OZONE
Saturday Good
PM2.5

Snow Depth

Station Depth Elevation
Burnt Mountain 0 in 4200 ft
Huckleberry Creek 0 in 2000 ft
Mount Gardner 0 in 3000 ft
Mount Crag 0 in 4050 ft
Meadows Pass 0 in 3500 ft

Earthquake Activity

City Distance Mag. Time & Date
No recent earthquake activity has been reported nearby.
Minimum magnitude displayed is 2.5.

Coastal Water Temperatures

Place Temperature
Port Townsend, WA 53.1 °F
Seattle, WA 55.9 °F
Friday Harbor, WA 55.0 °F
Tacoma, WA 55.9 °F

Nearby Weather Stations